Time;durP1;ratioP1;P1;durP2;ratioP2;P2;SDS_P1;SDS_P2;PMS_P1;PMS_P2;Temp;Humidity;BMP_temperature;BMP_pressure;BME280_temperature;BME280_humidity;BME280_pressure;Samples;Min_cycle;Max_cycle;Signal;HPM_P1;HPM_P2
2021/05/23 00:00:26;;;;;;;5.07;2.37;;;;;;;9.67;100.00;100058.13;4963304;28;20166;-81
2021/05/23 00:02:57;;;;;;;5.77;2.30;;;;;;;9.44;100.00;100068.81;4989588;28;20229;-80
2021/05/23 00:05:25;;;;;;;5.30;2.00;;;;;;;9.52;100.00;100070.94;4996376;28;20229;-80
2021/05/23 00:07:59;;;;;;;5.33;2.83;;;;;;;9.49;100.00;100060.66;4964177;28;20663;-81
2021/05/23 00:10:27;;;;;;;5.83;2.00;;;;;;;9.58;100.00;100060.59;4972044;28;20251;-80
2021/05/23 00:12:54;;;;;;;5.07;2.13;;;;;;;9.57;100.00;100062.78;4979529;28;20241;-79
2021/05/23 00:15:35;;;;;;;4.00;1.90;;;;;;;9.50;100.00;100062.28;4962698;28;20631;-80
2021/05/23 00:18:01;;;;;;;4.43;2.10;;;;;;;9.42;100.00;100060.16;4996368;28;20190;-81
2021/05/23 00:20:29;;;;;;;3.97;2.07;;;;;;;9.37;100.00;100054.75;4995477;28;20826;-80
2021/05/23 00:22:57;;;;;;;3.20;1.93;;;;;;;9.42;100.00;100049.31;4994262;28;20224;-80
2021/05/23 00:25:25;;;;;;;3.37;2.33;;;;;;;9.57;100.00;100053.53;4978846;28;20222;-81
2021/05/23 00:27:51;;;;;;;4.67;2.37;;;;;;;9.60;100.00;100047.56;4997329;28;20555;-81
2021/05/23 00:30:24;;;;;;;5.07;2.50;;;;;;;9.51;100.00;100039.50;4995781;28;20220;-80
2021/05/23 00:32:52;;;;;;;6.97;2.47;;;;;;;9.43;100.00;100045.50;4978629;28;20201;-82
2021/05/23 00:35:18;;;;;;;4.67;2.30;;;;;;;9.48;100.00;100056.31;4995672;28;20180;-80
2021/05/23 00:37:44;;;;;;;6.13;2.20;;;;;;;9.46;100.00;100056.59;4978889;28;20259;-79
2021/05/23 00:40:12;;;;;;;8.20;3.27;;;;;;;9.44;100.00;100056.06;4969310;28;20201;-80
2021/05/23 00:42:37;;;;;;;8.00;3.37;;;;;;;9.50;100.00;100059.56;4992249;28;20264;-82
2021/05/23 00:45:05;;;;;;;9.27;4.20;;;;;;;9.42;100.00;100060.16;5012804;28;20181;-81
2021/05/23 00:47:31;;;;;;;7.63;4.00;;;;;;;9.35;100.00;100054.22;4981904;28;20652;-80
2021/05/23 00:49:59;;;;;;;6.00;3.77;;;;;;;9.43;100.00;100054.47;4995258;28;20212;-79
2021/05/23 00:52:25;;;;;;;7.03;3.30;;;;;;;9.41;100.00;100059.31;5010156;28;20289;-81
2021/05/23 00:54:52;;;;;;;5.90;2.90;;;;;;;9.50;100.00;100062.28;4978818;28;20196;-79
2021/05/23 00:57:21;;;;;;;5.07;2.27;;;;;;;9.57;100.00;100068.19;4994422;28;20744;-79
2021/05/23 00:59:49;;;;;;;6.43;2.63;;;;;;;9.58;100.00;100066.03;4996761;28;20182;-80
2021/05/23 01:02:42;;;;;;;4.40;2.70;;;;;;;9.56;100.00;100082.84;4992064;28;20230;-80
2021/05/23 01:05:09;;;;;;;4.60;3.00;;;;;;;9.61;100.00;100075.47;5012073;28;20181;-80
2021/05/23 01:07:36;;;;;;;8.17;2.50;;;;;;;9.59;100.00;100078.47;4979760;28;20192;-79
2021/05/23 01:10:21;;;;;;;5.37;2.30;;;;;;;9.63;100.00;100071.41;5006593;28;20226;-80
2021/05/23 01:12:56;;;;;;;4.30;2.27;;;;;;;9.58;100.00;100081.47;4936465;28;20433;-80
2021/05/23 01:15:35;;;;;;;3.93;2.10;;;;;;;9.59;100.00;100083.88;4999613;28;20232;-81
2021/05/23 01:18:06;;;;;;;5.33;2.40;;;;;;;9.41;100.00;100081.00;4981856;28;20213;-81
2021/05/23 01:20:46;;;;;;;5.80;2.30;;;;;;;9.33;100.00;100084.31;4982903;28;20312;-80
2021/05/23 01:23:26;;;;;;;3.60;2.00;;;;;;;9.37;100.00;100085.38;4979496;28;20758;-81
2021/05/23 01:26:03;;;;;;;4.07;2.20;;;;;;;9.40;100.00;100079.41;4995060;28;20258;-80
2021/05/23 01:28:30;;;;;;;6.10;2.40;;;;;;;9.29;100.00;100087.88;4972142;28;20265;-80
2021/05/23 01:31:00;;;;;;;4.43;2.20;;;;;;;9.40;100.00;100079.41;4941317;29;20231;-80
2021/05/23 01:33:28;;;;;;;3.57;2.23;;;;;;;9.40;100.00;100089.44;4958593;29;20207;-81
2021/05/23 01:35:57;;;;;;;4.23;2.27;;;;;;;9.32;100.00;100090.00;4960432;28;20215;-81
2021/05/23 01:38:23;;;;;;;6.40;2.30;;;;;;;9.47;100.00;100087.22;4967995;28;20183;-79
2021/05/23 01:40:49;;;;;;;7.23;2.30;;;;;;;9.44;100.00;100096.72;4970175;28;20240;-79
2021/05/23 01:43:15;;;;;;;3.83;2.40;;;;;;;9.38;100.00;100086.19;4977979;28;20246;-79
2021/05/23 01:45:45;;;;;;;3.30;2.20;;;;;;;9.45;100.00;100083.97;4978939;28;20216;-78
2021/05/23 01:48:11;;;;;;;3.73;2.10;;;;;;;9.54;100.00;100085.00;4979514;28;20185;-79
2021/05/23 01:50:42;;;;;;;6.33;2.40;;;;;;;9.76;100.00;100091.66;4978635;28;20233;-80
2021/05/23 01:53:10;;;;;;;6.40;2.87;;;;;;;9.76;100.00;100089.78;4978578;28;20198;-79
2021/05/23 01:55:38;;;;;;;4.13;2.40;;;;;;;9.70;100.00;100090.88;5010070;28;20230;-79
2021/05/23 01:58:06;;;;;;;5.43;2.10;;;;;;;9.71;100.00;100086.28;4972066;28;20182;-80
2021/05/23 02:00:36;;;;;;;3.37;2.60;;;;;;;9.74;100.00;100085.72;5009738;28;20217;-80
2021/05/23 02:03:03;;;;;;;5.67;2.47;;;;;;;9.60;100.00;100095.56;4992685;28;20828;-80
2021/05/23 02:05:29;;;;;;;4.30;2.57;;;;;;;9.74;100.00;100091.97;4960825;28;20241;-80
2021/05/23 02:07:59;;;;;;;6.50;2.40;;;;;;;9.87;100.00;100093.22;4993438;28;20193;-79
2021/05/23 02:10:25;;;;;;;5.20;2.70;;;;;;;9.81;100.00;100092.44;4954732;28;20234;-80
2021/05/23 02:12:53;;;;;;;5.27;2.23;;;;;;;9.80;100.00;100090.84;4976634;28;20674;-80
2021/05/23 02:15:23;;;;;;;4.83;2.60;;;;;;;9.66;100.00;100092.53;4961551;28;20563;-81
2021/05/23 02:17:49;;;;;;;8.57;3.10;;;;;;;9.79;100.00;100094.63;4993056;28;20197;-81
2021/05/23 02:20:22;;;;;;;8.00;3.07;;;;;;;9.61;100.00;100091.75;4994028;28;20282;-80
2021/05/23 02:22:51;;;;;;;6.90;2.77;;;;;;;9.68;100.00;100093.06;4976309;28;20883;-81
2021/05/23 02:25:18;;;;;;;7.33;3.00;;;;;;;9.73;100.00;100095.75;4960905;28;20763;-80
2021/05/23 02:27:51;;;;;;;5.93;2.80;;;;;;;9.85;100.00;100093.50;4993528;28;20735;-80
2021/05/23 02:30:18;;;;;;;8.03;3.00;;;;;;;9.90;100.00;100093.47;4977068;28;20217;-79
2021/05/23 02:32:44;;;;;;;6.30;2.60;;;;;;;9.89;100.00;100094.56;4993101;28;20209;-80
2021/05/23 02:35:13;;;;;;;5.17;2.60;;;;;;;9.70;100.00;100088.16;4960338;28;20837;-80
2021/05/23 02:37:38;;;;;;;7.03;2.97;;;;;;;9.62;100.00;100091.47;4979318;28;20277;-80
2021/05/23 02:40:06;;;;;;;5.03;2.63;;;;;;;9.71;100.00;100091.72;4992363;28;20652;-80
2021/05/23 02:42:32;;;;;;;6.00;2.87;;;;;;;10.05;100.00;100093.41;4978492;28;20221;-81
2021/05/23 02:45:00;;;;;;;6.67;2.80;;;;;;;9.99;100.00;100106.19;4981544;28;20192;-79
2021/05/23 02:47:28;;;;;;;7.37;2.83;;;;;;;9.97;100.00;100102.13;4980614;28;20714;-79
2021/05/23 02:49:53;;;;;;;5.47;2.73;;;;;;;10.00;100.00;100102.38;4980725;28;20209;-79
2021/05/23 02:52:21;;;;;;;4.43;2.60;;;;;;;9.87;100.00;100091.34;4963034;28;20919;-79
2021/05/23 02:54:49;;;;;;;7.33;2.80;;;;;;;9.79;100.00;100105.47;4980804;28;20212;-79
2021/05/23 02:57:15;;;;;;;5.87;2.73;;;;;;;9.88;100.00;100109.22;4981002;28;20238;-79
2021/05/23 02:59:43;;;;;;;5.63;2.70;;;;;;;9.80;100.00;100107.09;4964618;28;20181;-79
2021/05/23 03:02:16;;;;;;;6.00;3.23;;;;;;;9.79;100.00;100108.19;4986687;28;20221;-80
2021/05/23 03:04:42;;;;;;;7.17;2.77;;;;;;;9.75;100.00;100109.84;4985076;28;20285;-79
2021/05/23 03:07:10;;;;;;;6.43;2.70;;;;;;;9.63;100.00;100114.81;4979693;28;20241;-80
2021/05/23 03:09:35;;;;;;;5.17;2.40;;;;;;;9.51;100.00;100118.94;4994320;28;20241;-80
2021/05/23 03:12:01;;;;;;;6.13;2.87;;;;;;;9.30;100.00;100116.56;4956937;28;20867;-80
2021/05/23 03:14:31;;;;;;;4.30;2.50;;;;;;;9.33;100.00;100116.03;4980478;28;20220;-81
2021/05/23 03:16:58;;;;;;;5.37;2.60;;;;;;;9.19;100.00;100119.59;5003622;28;20225;-80
2021/05/23 03:19:26;;;;;;;6.33;2.80;;;;;;;9.20;100.00;100132.06;5002273;28;20178;-79
2021/05/23 03:21:51;;;;;;;6.37;3.40;;;;;;;9.37;100.00;100122.50;4995966;28;20237;-80
2021/05/23 03:24:17;;;;;;;6.57;3.30;;;;;;;9.31;100.00;100129.84;4996083;28;20212;-81
2021/05/23 03:26:45;;;;;;;6.70;3.17;;;;;;;9.20;100.00;100132.06;4995641;28;20225;-81
2021/05/23 03:29:13;;;;;;;5.13;3.47;;;;;;;9.21;100.00;100134.47;4965489;28;20272;-80
2021/05/23 03:31:38;;;;;;;6.17;3.47;;;;;;;9.30;100.00;100135.53;5011757;28;20252;-79
2021/05/23 03:34:07;;;;;;;5.70;3.00;;;;;;;9.20;100.00;100141.00;4979322;28;20231;-80
2021/05/23 03:36:35;;;;;;;6.20;2.73;;;;;;;9.23;100.00;100148.59;4995594;28;20226;-80
2021/05/23 03:39:00;;;;;;;6.30;3.00;;;;;;;9.28;100.00;100143.94;4955877;28;20278;-80
2021/05/23 03:41:30;;;;;;;5.00;3.03;;;;;;;9.29;100.00;100152.91;4965279;28;20725;-81
2021/05/23 03:43:57;;;;;;;6.33;3.27;;;;;;;9.11;100.00;100150.78;4978866;28;20201;-81
2021/05/23 03:46:25;;;;;;;5.47;3.20;;;;;;;9.05;100.00;100149.16;4962565;28;20222;-80
2021/05/23 03:48:50;;;;;;;7.40;3.73;;;;;;;8.92;100.00;100144.31;4963075;28;20188;-80
2021/05/23 03:51:21;;;;;;;7.47;3.43;;;;;;;8.98;100.00;100143.22;4995699;28;20241;-80
2021/05/23 03:53:49;;;;;;;5.70;3.20;;;;;;;8.84;100.00;100155.72;4979062;28;20216;-80
2021/05/23 03:56:15;;;;;;;8.67;4.07;;;;;;;8.91;100.00;100150.81;4979008;28;20328;-82
2021/05/23 03:58:42;;;;;;;8.70;4.20;;;;;;;8.87;100.00;100160.56;4995825;28;20642;-80
2021/05/23 04:01:14;;;;;;;5.37;3.80;;;;;;;9.15;100.00;100168.09;4994855;28;20656;-81
2021/05/23 04:03:40;;;;;;;7.43;3.73;;;;;;;9.33;100.00;100170.22;4978127;28;20240;-81
2021/05/23 04:06:06;;;;;;;7.30;3.70;;;;;;;9.38;100.00;100175.63;4996338;28;20302;-82
2021/05/23 04:08:31;;;;;;;7.33;3.90;;;;;;;9.34;100.00;100179.97;4996103;28;20197;-81
2021/05/23 04:11:04;;;;;;;5.77;3.63;;;;;;;9.32;100.00;100179.44;4975645;28;20229;-79
2021/05/23 04:13:37;;;;;;;7.50;3.87;;;;;;;9.52;100.00;100180.16;5007969;28;20217;-82
2021/05/23 04:16:05;;;;;;;6.23;3.67;;;;;;;9.57;100.00;100182.06;5012797;28;20210;-79
2021/05/23 04:18:33;;;;;;;6.60;3.57;;;;;;;9.71;100.00;100179.28;4998469;28;20201;-80
2021/05/23 04:21:03;;;;;;;8.27;4.40;;;;;;;9.75;100.00;100180.34;4981895;28;20225;-80
2021/05/23 04:23:34;;;;;;;7.83;4.27;;;;;;;9.65;100.00;100196.69;4997268;28;20287;-79
2021/05/23 04:26:02;;;;;;;14.50;5.30;;;;;;;9.58;100.00;100193.44;4980705;28;20424;-79
2021/05/23 04:28:30;;;;;;;9.30;4.37;;;;;;;9.65;100.00;100191.25;4988538;28;20212;-81
2021/05/23 04:30:59;;;;;;;6.53;3.90;;;;;;;9.74;100.00;100199.59;4962949;28;20233;-80
2021/05/23 04:33:27;;;;;;;7.93;4.07;;;;;;;9.77;100.00;100199.84;5010653;28;20640;-80
2021/05/23 04:35:57;;;;;;;7.73;4.27;;;;;;;9.87;100.00;100205.25;4979599;28;20297;-81
2021/05/23 04:38:22;;;;;;;8.27;4.20;;;;;;;9.92;100.00;100207.97;4963871;28;20188;-79
2021/05/23 04:40:53;;;;;;;11.00;4.20;;;;;;;9.94;100.00;100211.19;4955478;28;20218;-81
2021/05/23 04:43:24;;;;;;;8.57;4.07;;;;;;;10.21;100.00;100206.19;5010249;28;20313;-80
2021/05/23 04:45:49;;;;;;;6.93;3.60;;;;;;;10.34;100.00;100216.41;4961935;28;20229;-79
2021/05/23 04:48:16;;;;;;;7.57;4.27;;;;;;;10.22;100.00;100224.91;4978813;28;20213;-81
2021/05/23 04:50:44;;;;;;;6.50;3.70;;;;;;;10.42;100.00;100228.31;4978097;28;20794;-82
2021/05/23 04:53:12;;;;;;;10.40;4.37;;;;;;;10.24;100.00;100233.56;4978039;28;20205;-81
2021/05/23 04:55:37;;;;;;;7.50;3.80;;;;;;;10.36;100.00;100235.94;5000423;28;20217;-80
2021/05/23 04:58:05;;;;;;;8.13;4.00;;;;;;;10.40;100.00;100241.34;4994913;28;20200;-80
2021/05/23 05:00:31;;;;;;;8.77;4.20;;;;;;;10.57;100.00;100243.69;4976339;28;20222;-81
2021/05/23 05:02:59;;;;;;;11.40;4.07;;;;;;;10.52;100.00;100241.81;4961671;28;20213;-81
2021/05/23 05:05:25;;;;;;;6.27;3.70;;;;;;;10.63;100.00;100254.22;4993008;28;20222;-78
2021/05/23 05:07:53;;;;;;;7.53;3.57;;;;;;;10.71;100.00;100255.53;5011890;28;20194;-82
2021/05/23 05:10:18;;;;;;;6.17;3.33;;;;;;;10.69;100.00;100263.94;4988770;28;20201;-79
2021/05/23 05:12:44;;;;;;;8.10;3.10;;;;;;;10.37;100.00;100265.53;4994927;28;20189;-80
2021/05/23 05:15:17;;;;;;;4.80;2.93;;;;;;;10.35;100.00;100265.00;4994795;28;20209;-78
2021/05/23 05:17:45;;;;;;;5.83;3.30;;;;;;;10.38;100.00;100276.13;5012003;28;20189;-80
2021/05/23 05:20:11;;;;;;;8.53;3.00;;;;;;;10.51;100.00;100267.34;5012539;28;20269;-79
2021/05/23 05:22:37;;;;;;;5.70;3.13;;;;;;;10.86;100.00;100275.22;5011913;28;20182;-79
2021/05/23 05:25:04;;;;;;;7.10;2.93;;;;;;;11.29;100.00;100270.50;4995375;28;20424;-78
2021/05/23 05:27:32;;;;;;;9.60;3.00;;;;;;;10.74;100.00;100280.22;5014364;28;20194;-79
2021/05/23 05:29:58;;;;;;;8.03;2.70;;;;;;;10.38;100.00;100278.81;5005339;28;20612;-80
2021/05/23 05:32:24;;;;;;;6.67;3.03;;;;;;;10.61;100.00;100280.84;4980864;28;20232;-80
2021/05/23 05:34:52;;;;;;;5.83;2.50;;;;;;;10.67;100.00;100274.28;4998482;28;20193;-81
2021/05/23 05:37:20;;;;;;;6.33;2.27;;;;;;;10.63;100.00;100278.66;4997419;28;20222;-80
2021/05/23 05:39:48;;;;;;;4.90;2.17;;;;;;;10.64;100.00;100277.59;4978669;28;20197;-81
2021/05/23 05:42:16;;;;;;;6.30;2.30;;;;;;;11.00;100.00;100276.22;4992168;28;20277;-81
2021/05/23 05:44:42;;;;;;;3.90;2.20;;;;;;;10.77;100.00;100282.38;4995997;28;20217;-79
2021/05/23 05:47:07;;;;;;;5.90;2.60;;;;;;;10.86;100.00;100291.53;4989430;28;20241;-81
2021/05/23 05:49:36;;;;;;;5.50;2.20;;;;;;;10.82;100.00;100294.03;4976031;28;20213;-79
2021/05/23 05:52:05;;;;;;;5.57;2.53;;;;;;;10.61;100.00;100286.28;4974787;28;20276;-78
2021/05/23 05:54:30;;;;;;;6.93;2.10;;;;;;;10.90;100.00;100282.53;4973363;28;20210;-80
2021/05/23 05:57:00;;;;;;;7.33;2.37;;;;;;;10.88;100.00;100302.94;4942680;28;20225;-80
2021/05/23 05:59:26;;;;;;;5.00;1.80;;;;;;;11.50;100.00;100293.75;4943464;28;20204;-80
2021/05/23 06:01:56;;;;;;;6.03;2.30;;;;;;;11.78;100.00;100295.63;4941302;28;20454;-79
2021/05/23 06:04:21;;;;;;;4.57;1.83;;;;;;;11.39;100.00;100292.19;4943106;28;20210;-81
2021/05/23 06:06:49;;;;;;;4.10;2.23;;;;;;;11.50;100.00;100296.47;4973631;28;20230;-81
2021/05/23 06:09:15;;;;;;;4.53;2.40;;;;;;;11.35;100.00;100312.88;4958070;28;20280;-80
2021/05/23 06:11:45;;;;;;;4.70;2.03;;;;;;;11.54;100.00;100311.91;4953463;28;20586;-80
2021/05/23 06:14:10;;;;;;;6.40;2.20;;;;;;;11.42;99.47;100313.34;4997717;28;20221;-79
2021/05/23 06:16:38;;;;;;;7.23;2.13;;;;;;;11.54;98.85;100313.81;4963977;28;20228;-79
2021/05/23 06:19:06;;;;;;;5.23;1.90;;;;;;;11.35;100.00;100317.50;5013803;28;20545;-80
2021/05/23 06:21:36;;;;;;;4.97;2.07;;;;;;;11.43;100.00;100315.00;4965840;28;20225;-80
2021/05/23 06:24:02;;;;;;;5.10;1.97;;;;;;;11.59;97.46;100319.19;4980908;28;20245;-79
2021/05/23 06:26:33;;;;;;;4.43;1.70;;;;;;;11.39;95.83;100313.09;4997777;28;20256;-80
2021/05/23 06:29:01;;;;;;;6.67;1.97;;;;;;;12.02;93.88;100319.03;4997422;28;20280;-80
2021/05/23 06:31:29;;;;;;;4.13;1.70;;;;;;;11.78;96.60;100329.09;4980054;28;20636;-79
2021/05/23 06:33:56;;;;;;;4.40;1.93;;;;;;;11.97;96.77;100328.03;4996145;28;20308;-82
2021/05/23 06:36:22;;;;;;;6.70;2.13;;;;;;;12.36;92.89;100332.22;4997141;28;20275;-80
2021/05/23 06:38:51;;;;;;;6.17;1.77;;;;;;;11.93;92.19;100337.88;4997565;28;20178;-80
2021/05/23 06:41:16;;;;;;;5.23;1.60;;;;;;;11.99;90.55;100342.16;4958081;28;20221;-78
2021/05/23 06:43:42;;;;;;;5.77;1.50;;;;;;;11.99;87.32;100344.88;4997591;28;20208;-79
2021/05/23 06:46:08;;;;;;;4.00;1.30;;;;;;;12.21;86.33;100334.28;4963728;28;20221;-80
2021/05/23 06:48:33;;;;;;;5.07;1.40;;;;;;;11.91;86.23;100343.94;4997128;28;20239;-82
2021/05/23 06:51:00;;;;;;;5.90;1.60;;;;;;;12.11;86.67;100344.50;4964058;28;20368;-79
2021/05/23 06:53:26;;;;;;;4.83;1.40;;;;;;;11.90;87.20;100345.81;4998088;28;20703;-80
2021/05/23 06:55:52;;;;;;;3.20;1.20;;;;;;;12.18;85.81;100345.78;4963584;28;20221;-79
2021/05/23 06:58:20;;;;;;;5.23;1.33;;;;;;;12.24;84.42;100346.53;4965352;28;20184;-79
2021/05/23 07:00:46;;;;;;;6.17;1.50;;;;;;;12.55;81.94;100354.03;4996351;28;20612;-82
2021/05/23 07:03:11;;;;;;;4.07;1.40;;;;;;;12.36;79.87;100358.63;4997103;28;20688;-79
2021/05/23 07:05:37;;;;;;;3.77;1.10;;;;;;;12.35;79.91;100354.28;4982597;28;20283;-80
2021/05/23 07:08:05;;;;;;;3.60;1.30;;;;;;;12.52;78.48;100357.34;4963852;28;20190;-79
2021/05/23 07:10:32;;;;;;;5.20;1.50;;;;;;;12.00;81.14;100362.84;4989795;28;20234;-80
2021/05/23 07:12:58;;;;;;;4.80;1.40;;;;;;;12.43;81.94;100361.81;4979420;28;20209;-80
2021/05/23 07:15:28;;;;;;;4.43;1.23;;;;;;;12.60;81.55;100364.84;4997227;28;20251;-80
2021/05/23 07:17:57;;;;;;;3.03;1.20;;;;;;;12.56;77.20;100369.28;4981599;28;20206;-80
2021/05/23 07:20:22;;;;;;;3.13;1.33;;;;;;;12.47;77.73;100369.13;4983355;28;20242;-81
2021/05/23 07:22:48;;;;;;;4.37;1.20;;;;;;;12.17;78.27;100368.66;4998960;28;20182;-79
2021/05/23 07:25:16;;;;;;;3.37;1.20;;;;;;;12.32;78.10;100371.19;5016058;28;20196;-80
2021/05/23 07:27:42;;;;;;;4.10;1.37;;;;;;;12.79;78.52;100374.69;4994551;28;20208;-80
2021/05/23 07:30:08;;;;;;;3.20;1.30;;;;;;;13.20;77.81;100387.47;5008296;28;20205;-79
2021/05/23 07:32:33;;;;;;;5.80;1.43;;;;;;;12.54;76.38;100380.44;4977639;28;20186;-80
2021/05/23 07:34:59;;;;;;;4.97;1.63;;;;;;;12.55;77.29;100384.00;4993184;28;20197;-80
2021/05/23 07:37:25;;;;;;;5.47;1.20;;;;;;;12.30;76.06;100395.19;4999880;28;20226;-82
2021/05/23 07:39:53;;;;;;;3.50;1.50;;;;;;;12.97;77.58;100393.00;4982372;28;20224;-80
2021/05/23 07:42:21;;;;;;;3.10;1.43;;;;;;;13.25;76.06;100395.59;4981850;28;20312;-79
2021/05/23 07:44:47;;;;;;;4.80;1.27;;;;;;;12.66;73.76;100396.41;4988169;28;20265;-81
2021/05/23 07:47:14;;;;;;;6.07;1.33;;;;;;;12.94;73.51;100404.50;5007024;28;20673;-79
2021/05/23 07:49:40;;;;;;;3.30;1.10;;;;;;;12.97;71.05;100407.44;5011015;28;20197;-81
2021/05/23 07:52:12;;;;;;;4.20;1.30;;;;;;;13.28;74.42;100405.91;5010419;28;20225;-80
2021/05/23 07:54:40;;;;;;;2.47;0.93;;;;;;;13.34;70.58;100410.19;4996213;28;20284;-79
2021/05/23 07:57:07;;;;;;;5.00;1.20;;;;;;;12.94;70.74;100416.19;5009720;28;20301;-79
2021/05/23 07:59:35;;;;;;;4.50;1.10;;;;;;;13.42;68.73;100406.78;5000675;28;20197;-78
2021/05/23 08:02:00;;;;;;;3.03;1.30;;;;;;;13.48;69.60;100407.22;5000260;28;20226;-80
2021/05/23 08:04:31;;;;;;;4.57;1.10;;;;;;;13.75;68.87;100407.28;4996404;28;20205;-80
2021/05/23 08:06:56;;;;;;;4.47;1.17;;;;;;;13.62;69.62;100412.72;4979779;28;20305;-80
2021/05/23 08:09:24;;;;;;;2.10;1.00;;;;;;;14.02;67.72;100423.78;4964158;28;20201;-79
2021/05/23 08:11:53;;;;;;;4.30;1.13;;;;;;;13.80;68.29;100418.13;4989056;28;20223;-81
2021/05/23 08:14:21;;;;;;;4.63;0.90;;;;;;;13.59;70.42;100424.25;4979787;28;20268;-79
2021/05/23 08:16:51;;;;;;;3.27;1.27;;;;;;;14.02;67.06;100423.78;4995892;28;20233;-80
2021/05/23 08:19:17;;;;;;;3.50;1.00;;;;;;;14.17;66.08;100431.72;4964155;28;20612;-79
2021/05/23 08:21:44;;;;;;;4.40;0.97;;;;;;;14.42;62.79;100418.41;4994717;28;20276;-79
2021/05/23 08:24:10;;;;;;;2.47;0.97;;;;;;;14.61;62.09;100428.09;4979593;28;20205;-79
2021/05/23 08:26:38;;;;;;;2.20;0.80;;;;;;;14.27;61.65;100435.09;4978770;28;20632;-80
2021/05/23 08:29:08;;;;;;;3.30;0.90;;;;;;;14.21;60.09;100436.25;4995848;28;20190;-80
2021/05/23 08:31:39;;;;;;;3.33;1.10;;;;;;;14.63;58.01;100431.34;4993976;28;20272;-79
2021/05/23 08:34:04;;;;;;;2.23;0.90;;;;;;;14.82;59.97;100443.00;4965338;28;20211;-79
2021/05/23 08:36:35;;;;;;;2.80;1.05;;;;;;;14.70;56.87;100442.69;4977465;28;20842;-79
2021/05/23 08:39:00;;;;;;;1.95;0.90;;;;;;;14.66;58.60;100445.22;4994976;28;20660;-78
2021/05/23 08:41:29;;;;;;;5.57;1.27;;;;;;;14.23;61.50;100453.19;4971919;28;20244;-79
2021/05/23 08:43:57;;;;;;;1.53;0.60;;;;;;;14.92;58.63;100437.31;4978034;28;20695;-80
2021/05/23 08:46:33;;;;;;;1.73;0.70;;;;;;;15.09;54.07;100447.31;4978607;28;20755;-81
2021/05/23 08:49:03;;;;;;;1.30;0.73;;;;;;;15.34;51.17;100449.53;4973533;28;20195;-80
2021/05/23 08:51:31;;;;;;;1.33;0.70;;;;;;;14.95;53.43;100444.91;4991121;28;20228;-79
2021/05/23 08:53:56;;;;;;;1.77;0.70;;;;;;;14.78;54.51;100447.44;4962227;28;20209;-79
2021/05/23 08:56:22;;;;;;;3.37;0.70;;;;;;;15.01;49.60;100458.97;4962021;28;20268;-80
2021/05/23 08:58:50;;;;;;;3.53;1.30;;;;;;;14.41;50.38;100465.94;4996928;28;20240;-80
2021/05/23 09:01:27;;;;;;;1.73;0.83;;;;;;;14.62;53.28;100456.28;4962885;28;20232;-79
2021/05/23 09:04:00;;;;;;;1.37;0.70;;;;;;;14.87;52.75;100460.13;4994069;28;20212;-79
2021/05/23 09:06:27;;;;;;;2.33;0.73;;;;;;;15.12;51.95;100454.09;4979102;28;20233;-82
2021/05/23 09:08:56;;;;;;;2.10;0.80;;;;;;;15.19;49.82;100455.34;4979944;28;20188;-78
2021/05/23 09:11:24;;;;;;;1.03;0.57;;;;;;;15.32;48.24;100462.72;4972225;28;20717;-80
2021/05/23 09:13:53;;;;;;;1.15;0.70;;;;;;;15.76;47.01;100462.78;5000092;28;20217;-79
2021/05/23 09:16:21;;;;;;;1.17;0.60;;;;;;;15.43;47.80;100472.31;4978875;28;20228;-78
2021/05/23 09:18:51;;;;;;;3.28;0.70;;;;;;;15.58;49.65;100466.47;5029713;28;20187;-79
2021/05/23 09:21:18;;;;;;;0.60;0.50;;;;;;;15.26;47.01;100474.09;5010430;28;20237;-78
2021/05/23 09:23:50;;;;;;;2.97;0.90;;;;;;;16.02;48.11;100468.13;4978909;28;20229;-80
2021/05/23 09:26:20;;;;;;;2.47;0.80;;;;;;;15.95;48.57;100467.75;5000909;28;20243;-79
2021/05/23 09:28:46;;;;;;;2.13;0.73;;;;;;;14.90;50.72;100475.09;4963228;28;20182;-79
2021/05/23 09:31:14;;;;;;;2.80;0.70;;;;;;;15.61;50.35;100465.88;4992835;28;20316;-81
2021/05/23 09:33:41;;;;;;;1.70;0.65;;;;;;;16.32;49.30;100467.38;5010287;28;20209;-80
2021/05/23 09:36:12;;;;;;;1.42;0.60;;;;;;;16.73;46.88;100465.97;4993665;28;20601;-80
2021/05/23 09:38:40;;;;;;;0.75;0.60;;;;;;;16.88;47.50;100469.06;4963252;28;20193;-80
2021/05/23 09:41:17;;;;;;;1.80;0.50;;;;;;;16.51;47.53;100477.00;4944452;28;20254;-79
2021/05/23 09:43:42;;;;;;;1.70;0.77;;;;;;;16.18;48.41;100488.56;4976585;28;20702;-80
2021/05/23 09:46:10;;;;;;;2.72;0.88;;;;;;;16.16;50.21;100481.75;4960722;28;20225;-80
2021/05/23 09:48:38;;;;;;;2.15;0.70;;;;;;;16.35;49.42;100475.78;4978461;28;20193;-80
2021/05/23 09:51:14;;;;;;;1.20;0.60;;;;;;;16.68;50.11;100472.41;4992836;28;20221;-80
2021/05/23 09:53:42;;;;;;;1.00;0.50;;;;;;;16.79;47.08;100479.22;4970226;28;20253;-79
2021/05/23 09:56:14;;;;;;;2.00;0.60;;;;;;;16.67;47.17;100475.47;4981217;28;20703;-80
2021/05/23 09:58:45;;;;;;;1.45;0.68;;;;;;;16.83;48.43;100474.72;4962797;28;20842;-79
2021/05/23 10:01:25;;;;;;;1.33;0.70;;;;;;;17.46;46.77;100468.44;4977109;28;20249;-79
2021/05/23 10:03:53;;;;;;;3.35;0.80;;;;;;;16.71;47.98;100482.72;4963086;28;20212;-79
2021/05/23 10:06:34;;;;;;;0.82;0.57;;;;;;;16.69;46.66;100485.00;4961539;28;20229;-80
2021/05/23 10:08:59;;;;;;;1.58;0.70;;;;;;;17.12;47.72;100480.44;4993966;28;20185;-79
2021/05/23 10:11:27;;;;;;;1.67;0.80;;;;;;;15.79;48.33;100493.09;4986149;28;20287;-81
2021/05/23 10:13:53;;;;;;;2.65;0.85;;;;;;;16.12;49.22;100491.75;4976745;28;20715;-80
2021/05/23 10:16:19;;;;;;;1.55;0.85;;;;;;;16.21;49.06;100491.50;4993002;28;20229;-79
2021/05/23 10:18:47;;;;;;;2.67;0.60;;;;;;;16.39;47.86;100495.16;4993457;28;20189;-80
2021/05/23 10:21:15;;;;;;;1.95;1.00;;;;;;;17.00;49.56;100491.25;4992535;28;20233;-80
2021/05/23 10:23:59;;;;;;;1.25;0.60;;;;;;;17.33;47.76;100491.38;4992575;28;20589;-79
2021/05/23 10:26:27;;;;;;;1.75;0.77;;;;;;;17.59;46.62;100486.72;4992710;28;20244;-79
2021/05/23 10:28:55;;;;;;;2.40;0.80;;;;;;;17.60;46.96;100485.59;4960467;28;20244;-79
2021/05/23 10:31:29;;;;;;;1.52;0.73;;;;;;;16.62;47.78;100501.09;4961154;28;20230;-80
2021/05/23 10:33:57;;;;;;;2.38;0.85;;;;;;;17.30;49.29;100498.63;4960476;28;20236;-79
2021/05/23 10:36:41;;;;;;;1.83;0.70;;;;;;;17.36;47.50;100490.72;4992347;28;20225;-80
2021/05/23 10:39:22;;;;;;;1.23;0.68;;;;;;;17.44;48.47;100497.38;4963441;28;20189;-84
2021/05/23 10:41:47;;;;;;;2.40;0.80;;;;;;;17.27;48.76;100502.00;4990854;28;20594;-79
2021/05/23 10:44:15;;;;;;;1.85;1.02;;;;;;;17.15;48.40;100510.03;4993769;28;20205;-80
2021/05/23 10:46:52;;;;;;;3.08;0.88;;;;;;;16.90;48.57;100507.19;4992546;28;20261;-80
2021/05/23 10:49:20;;;;;;;1.50;0.80;;;;;;;16.69;49.57;100509.69;4970851;28;20197;-79
2021/05/23 10:51:56;;;;;;;1.42;0.63;;;;;;;17.52;48.32;100500.09;4959341;28;20874;-79
2021/05/23 10:54:22;;;;;;;1.08;0.60;;;;;;;17.46;47.16;100501.41;4976763;28;20217;-79
2021/05/23 10:57:06;;;;;;;1.27;0.82;;;;;;;17.60;47.53;100502.06;4976175;28;20217;-80
2021/05/23 10:59:32;;;;;;;2.45;0.90;;;;;;;17.49;47.78;100514.50;4988412;28;20672;-80
2021/05/23 11:01:58;;;;;;;1.65;0.85;;;;;;;17.61;47.13;100520.16;4997472;28;20283;-81
2021/05/23 11:04:33;;;;;;;1.63;0.95;;;;;;;17.69;46.41;100511.13;4964353;28;20201;-79
2021/05/23 11:07:10;;;;;;;1.60;0.80;;;;;;;17.22;47.37;100526.88;4981391;28;20221;-78
2021/05/23 11:09:41;;;;;;;2.28;0.80;;;;;;;17.28;48.17;100520.91;4979874;28;20726;-80
2021/05/23 11:12:07;;;;;;;1.58;0.90;;;;;;;17.10;47.82;100530.19;4989920;28;20271;-79
2021/05/23 11:14:33;;;;;;;1.88;0.80;;;;;;;16.83;48.28;100532.34;4996270;28;20210;-80
2021/05/23 11:17:01;;;;;;;1.10;0.90;;;;;;;16.69;49.11;100534.38;4979596;28;20225;-80
2021/05/23 11:19:32;;;;;;;2.38;0.85;;;;;;;16.86;48.67;100528.97;4965272;28;20189;-79
2021/05/23 11:22:00;;;;;;;0.93;0.80;;;;;;;16.90;49.25;100529.94;4979173;28;20305;-79
2021/05/23 11:24:38;;;;;;;1.40;1.10;;;;;;;17.02;50.22;100527.41;4964702;28;20260;-81
2021/05/23 11:27:10;;;;;;;1.13;0.70;;;;;;;17.48;49.20;100521.13;4980536;28;20652;-81
2021/05/23 11:29:36;;;;;;;3.10;0.98;;;;;;;17.33;49.03;100526.25;4995146;28;20182;-80